KHYI

San Marcos Regional Airport

Austin, Texas, USA
METAR KHYI 170656Z AUTO 00000KT 10SM CLR 08/05 A3028 RMK AO2 SLP248 T00830050
Observed Flight Rules
Dec-17 @ 06:56 UTC (33 minutes ago) Visual Flight Rules
Visibility Clouds
10 miles
  • Clear skies
Temperatures Readings
Current 8°C / 46°F
Dewpoint 5°C / 41°F
Humidity 82%
Altimeter 30.28" Hg
Pressure 1024.8 hPa
Elevation 182
METAR KHYI 170656Z AUTO 00000KT 10SM CLR 08/05 A3028 RMK AO2 SLP248 T00830050
Observed Flight Rules
Dec-17 @ 06:56 UTC
(33 minutes ago)
VFR
Clouds
  • Clear skies
Temperature Dewpoint
8°C / 46°F 5°C / 41°F
Humidity Altimeter Pressure
82% 30.28" Hg 1024.8 hPa